Time;durP1;ratioP1;P1;durP2;ratioP2;P2;SDS_P1;SDS_P2;PMS_P1;PMS_P2;Temp;Humidity;BMP_temperature;BMP_pressure;BME280_temperature;BME280_humidity;BME280_pressure;Samples;Min_cycle;Max_cycle;Signal;HPM_P1;HPM_P2
2021/06/07 00:01:07;;;;;;;35.13;20.17;;;;;;;16.11;100.00;96556.38;5041511;28;20453;-72
2021/06/07 00:03:33;;;;;;;33.63;19.83;;;;;;;16.11;100.00;96551.88;5041773;28;20255;-72
2021/06/07 00:05:59;;;;;;;28.83;18.20;;;;;;;16.12;100.00;96556.16;5040544;28;20204;-72
2021/06/07 00:08:26;;;;;;;28.35;16.88;;;;;;;16.14;100.00;96554.13;5041783;28;20229;-72
2021/06/07 00:10:53;;;;;;;26.75;17.10;;;;;;;16.14;100.00;96554.13;5041031;28;20690;-72
2021/06/07 00:13:19;;;;;;;27.40;17.23;;;;;;;16.14;100.00;96558.63;5041762;28;20240;-72
2021/06/07 00:15:46;;;;;;;31.35;17.98;;;;;;;16.14;100.00;96558.63;5041066;28;20251;-71
2021/06/07 00:18:12;;;;;;;30.90;18.73;;;;;;;16.17;100.00;96560.91;5041341;28;20232;-71
2021/06/07 00:20:40;;;;;;;32.45;19.25;;;;;;;16.17;100.00;96551.06;5040852;28;21232;-70
2021/06/07 00:23:10;;;;;;;29.42;18.90;;;;;;;16.15;100.00;96560.25;5040974;28;20252;-73
2021/06/07 00:25:37;;;;;;;36.42;20.20;;;;;;;16.16;100.00;96556.59;5040994;28;20244;-71
2021/06/07 00:28:03;;;;;;;35.35;21.13;;;;;;;16.14;100.00;96551.47;5040610;28;20225;-70
2021/06/07 00:30:30;;;;;;;37.25;20.20;;;;;;;16.12;100.00;96548.19;5038819;28;20197;-71
2021/06/07 00:32:56;;;;;;;37.28;20.23;;;;;;;16.15;100.00;96549.63;5041097;28;20268;-72
2021/06/07 00:35:24;;;;;;;33.30;19.88;;;;;;;16.15;100.00;96545.16;5040172;28;20232;-72
2021/06/07 00:37:50;;;;;;;35.28;20.38;;;;;;;16.16;100.00;96549.41;5040315;28;20931;-70
2021/06/07 00:40:17;;;;;;;37.05;20.33;;;;;;;16.15;100.00;96552.28;5040433;28;20213;-72
2021/06/07 00:42:45;;;;;;;34.45;20.85;;;;;;;16.15;100.00;96550.47;5040538;28;20228;-71
2021/06/07 00:45:14;;;;;;;32.55;20.27;;;;;;;16.17;100.00;96544.94;5040230;28;20212;-72
2021/06/07 00:47:41;;;;;;;32.20;19.08;;;;;;;16.17;100.00;96548.41;5040626;28;20221;-70
2021/06/07 00:50:11;;;;;;;40.20;20.67;;;;;;;16.16;100.00;96546.75;5042472;28;20198;-73
2021/06/07 00:52:37;;;;;;;36.65;20.77;;;;;;;16.17;100.00;96547.59;5040614;28;20839;-72
2021/06/07 00:55:05;;;;;;;33.10;19.67;;;;;;;16.14;100.00;96548.00;5040128;28;20561;-73
2021/06/07 00:57:31;;;;;;;31.73;19.50;;;;;;;16.13;100.00;96552.50;5041142;28;20209;-71
2021/06/07 00:59:58;;;;;;;34.10;19.98;;;;;;;16.17;100.00;96543.09;5040806;28;20201;-72
2021/06/07 01:02:24;;;;;;;34.97;19.35;;;;;;;16.16;100.00;96551.28;5040602;28;20205;-72
2021/06/07 01:04:50;;;;;;;33.88;19.77;;;;;;;16.15;100.00;96545.16;5040103;28;20232;-72
2021/06/07 01:07:16;;;;;;;31.05;19.60;;;;;;;16.15;100.00;96544.31;5038895;28;20208;-72
2021/06/07 01:09:42;;;;;;;32.45;19.50;;;;;;;16.11;100.00;96543.09;5040995;28;20221;-73
2021/06/07 01:12:10;;;;;;;31.30;19.55;;;;;;;16.12;100.00;96544.72;5041054;28;20209;-71
2021/06/07 01:14:36;;;;;;;30.75;19.30;;;;;;;16.13;100.00;96538.41;5041387;28;20233;-72
2021/06/07 01:17:04;;;;;;;29.60;18.70;;;;;;;16.14;100.00;96537.34;5039793;28;20216;-71
2021/06/07 01:19:29;;;;;;;33.63;19.40;;;;;;;16.13;100.00;96541.88;5039860;28;20607;-71
2021/06/07 01:22:02;;;;;;;29.75;18.15;;;;;;;16.14;100.00;96543.50;5039782;28;20209;-71
2021/06/07 01:24:28;;;;;;;30.45;18.38;;;;;;;16.15;100.00;96539.84;5040321;28;20233;-71
2021/06/07 01:26:54;;;;;;;29.90;17.63;;;;;;;16.16;100.00;96540.63;5038461;28;20202;-72
2021/06/07 01:29:20;;;;;;;28.00;17.70;;;;;;;16.19;100.00;96545.53;5036943;28;20229;-72
2021/06/07 01:31:46;;;;;;;29.08;17.92;;;;;;;16.18;100.00;96542.06;5040766;28;20197;-71
2021/06/07 01:34:12;;;;;;;31.02;17.60;;;;;;;16.21;100.00;96544.31;5039378;28;20311;-71
2021/06/07 01:36:38;;;;;;;29.73;17.70;;;;;;;16.19;100.00;96538.41;5040283;28;20201;-72
2021/06/07 01:39:06;;;;;;;30.42;18.25;;;;;;;16.15;100.00;96536.34;5039841;28;20217;-73
2021/06/07 01:41:32;;;;;;;28.17;18.25;;;;;;;16.17;100.00;96536.97;5039262;28;20808;-72
2021/06/07 01:43:58;;;;;;;27.20;17.10;;;;;;;16.14;100.00;96532.88;5038830;28;20275;-71
2021/06/07 01:46:24;;;;;;;25.77;16.88;;;;;;;16.19;100.00;96535.75;5039732;28;20205;-72
2021/06/07 01:48:50;;;;;;;25.02;16.13;;;;;;;16.11;100.00;96527.94;5039421;28;20597;-72
2021/06/07 01:51:16;;;;;;;28.67;17.35;;;;;;;16.14;100.00;96532.88;5039111;28;20201;-71
2021/06/07 01:53:44;;;;;;;29.80;17.60;;;;;;;16.13;100.00;96531.22;5040128;28;20221;-72
2021/06/07 01:56:12;;;;;;;32.08;17.98;;;;;;;16.10;100.00;96536.13;5037090;28;20224;-73
2021/06/07 01:58:40;;;;;;;30.40;18.52;;;;;;;16.04;100.00;96535.09;5038452;28;20946;-73
2021/06/07 02:01:09;;;;;;;32.80;18.17;;;;;;;16.08;100.00;96528.34;5037826;28;20212;-72
2021/06/07 02:03:36;;;;;;;31.13;18.75;;;;;;;16.04;100.00;96535.09;5039940;28;20225;-70
2021/06/07 02:06:06;;;;;;;29.15;17.75;;;;;;;16.05;100.00;96534.09;5038708;28;20205;-72
2021/06/07 02:08:32;;;;;;;30.75;18.42;;;;;;;16.07;100.00;96534.69;5038428;28;20224;-72
2021/06/07 02:11:01;;;;;;;33.38;18.88;;;;;;;16.03;100.00;96533.47;5036559;28;20693;-73
2021/06/07 02:13:28;;;;;;;30.02;18.42;;;;;;;16.05;100.00;96533.25;5039573;28;20221;-72
2021/06/07 02:15:58;;;;;;;29.35;18.55;;;;;;;16.06;100.00;96535.72;5038469;28;20299;-71
2021/06/07 02:18:24;;;;;;;29.83;18.73;;;;;;;16.06;100.00;96530.41;5038686;28;20204;-72
2021/06/07 02:20:51;;;;;;;29.00;17.55;;;;;;;16.06;100.00;96533.06;5038605;28;20221;-73
2021/06/07 02:23:17;;;;;;;29.25;17.25;;;;;;;16.04;100.00;96529.78;5038662;28;20282;-71
2021/06/07 02:25:43;;;;;;;30.80;18.33;;;;;;;16.04;100.00;96527.13;5038476;28;20240;-71
2021/06/07 02:28:11;;;;;;;29.33;17.50;;;;;;;16.08;100.00;96528.34;5038648;28;20229;-73
2021/06/07 02:30:39;;;;;;;29.25;18.35;;;;;;;16.09;100.00;96526.53;5037213;28;20805;-72
2021/06/07 02:33:06;;;;;;;31.35;18.63;;;;;;;16.11;100.00;96517.31;5039307;28;20377;-70
2021/06/07 02:35:33;;;;;;;30.90;18.60;;;;;;;16.08;100.00;96525.69;5038158;28;20206;-72
2021/06/07 02:37:59;;;;;;;32.58;18.42;;;;;;;16.04;100.00;96524.47;5038617;28;20549;-73
2021/06/07 02:40:28;;;;;;;29.75;17.88;;;;;;;16.08;100.00;96532.88;5037709;28;21117;-72
2021/06/07 02:42:55;;;;;;;30.70;19.25;;;;;;;16.05;100.00;96527.94;5038871;28;20224;-72
2021/06/07 02:45:23;;;;;;;30.40;18.40;;;;;;;16.03;100.00;96528.16;5038389;28;20201;-72
2021/06/07 02:47:53;;;;;;;34.10;18.38;;;;;;;16.00;100.00;96533.88;5038027;28;20227;-73
2021/06/07 02:50:23;;;;;;;30.48;18.00;;;;;;;16.03;100.00;96530.00;5038161;28;20212;-72
2021/06/07 02:52:49;;;;;;;28.40;17.45;;;;;;;16.01;100.00;96527.53;5038225;28;20225;-73
2021/06/07 02:55:17;;;;;;;27.90;17.17;;;;;;;16.00;100.00;96531.22;5038416;28;20265;-70
2021/06/07 02:57:44;;;;;;;28.10;17.83;;;;;;;16.00;100.00;96530.41;5037667;28;20197;-73
2021/06/07 03:00:13;;;;;;;30.63;17.45;;;;;;;16.00;100.00;96536.53;5038473;28;20577;-72
2021/06/07 03:02:39;;;;;;;27.95;17.50;;;;;;;16.00;100.00;96531.22;5038640;28;21072;-73
2021/06/07 03:05:07;;;;;;;25.55;15.93;;;;;;;16.02;100.00;96526.50;5038209;28;20765;-72
2021/06/07 03:07:33;;;;;;;26.98;17.77;;;;;;;16.03;100.00;96527.34;5038914;28;20746;-72
2021/06/07 03:09:59;;;;;;;25.95;17.17;;;;;;;16.01;100.00;96524.06;5037929;28;20232;-72
2021/06/07 03:12:25;;;;;;;29.42;17.63;;;;;;;16.03;100.00;96530.00;5037873;28;20730;-73
2021/06/07 03:14:52;;;;;;;28.05;17.75;;;;;;;16.03;100.00;96530.81;5037018;28;20214;-70
2021/06/07 03:17:17;;;;;;;29.55;18.08;;;;;;;16.04;100.00;96534.31;5036467;28;20740;-72
2021/06/07 03:19:44;;;;;;;28.38;17.50;;;;;;;16.05;100.00;96531.44;5037795;28;20194;-73
2021/06/07 03:22:11;;;;;;;28.52;18.33;;;;;;;16.04;100.00;96534.31;5038694;28;20201;-71
2021/06/07 03:24:37;;;;;;;28.10;17.90;;;;;;;16.04;100.00;96535.09;5038045;28;20221;-73
2021/06/07 03:27:04;;;;;;;29.10;18.13;;;;;;;16.07;100.00;96531.22;5036637;28;20631;-71
2021/06/07 03:29:30;;;;;;;32.80;18.25;;;;;;;16.07;100.00;96526.72;5035826;28;20233;-73
2021/06/07 03:31:56;;;;;;;28.90;17.98;;;;;;;16.09;100.00;96527.34;5045822;28;20694;-71
2021/06/07 03:34:22;;;;;;;28.02;17.42;;;;;;;16.10;100.00;96528.16;5044488;28;20802;-73
2021/06/07 03:36:48;;;;;;;27.00;17.55;;;;;;;16.11;100.00;96538.56;5044919;28;20228;-72
2021/06/07 03:39:15;;;;;;;28.50;18.15;;;;;;;16.11;100.00;96535.91;5045328;28;20201;-73
2021/06/07 03:41:41;;;;;;;29.63;17.55;;;;;;;16.10;100.00;96534.31;5044741;28;20759;-72
2021/06/07 03:44:07;;;;;;;32.45;18.70;;;;;;;16.12;100.00;96537.56;5044816;28;20216;-71
2021/06/07 03:46:33;;;;;;;32.58;18.33;;;;;;;16.13;100.00;96536.53;5043098;28;20211;-71
2021/06/07 03:48:59;;;;;;;30.17;18.20;;;;;;;16.09;100.00;96543.28;5043591;28;20307;-73
2021/06/07 03:51:25;;;;;;;29.65;18.70;;;;;;;16.09;100.00;96540.63;5044643;28;20205;-73
2021/06/07 03:53:51;;;;;;;32.85;18.52;;;;;;;16.09;100.00;96535.31;5044496;28;20221;-74
2021/06/07 03:56:18;;;;;;;31.85;18.65;;;;;;;16.09;100.00;96540.63;5045045;28;20238;-73
2021/06/07 03:58:44;;;;;;;33.60;19.23;;;;;;;16.09;100.00;96537.97;5045745;28;20196;-72
2021/06/07 04:01:10;;;;;;;34.83;19.63;;;;;;;16.11;100.00;96541.22;5044661;28;20280;-73
2021/06/07 04:03:37;;;;;;;34.35;20.20;;;;;;;16.07;100.00;96536.53;5044644;28;20326;-72
2021/06/07 04:06:03;;;;;;;32.05;19.13;;;;;;;16.10;100.00;96541.44;5044619;28;20205;-73
2021/06/07 04:08:30;;;;;;;32.08;18.67;;;;;;;16.13;100.00;96541.88;5043473;28;20707;-73
2021/06/07 04:10:56;;;;;;;30.02;18.55;;;;;;;16.13;100.00;96533.88;5043922;28;20279;-71
2021/06/07 04:13:23;;;;;;;33.53;19.05;;;;;;;16.13;100.00;96535.75;5044714;28;20228;-73
2021/06/07 04:15:49;;;;;;;30.65;18.02;;;;;;;16.16;100.00;96530.81;5043655;28;20220;-71
2021/06/07 04:18:15;;;;;;;34.85;19.63;;;;;;;16.18;100.00;96539.41;5045841;28;20232;-71
2021/06/07 04:20:41;;;;;;;39.00;20.70;;;;;;;16.18;100.00;96539.41;5044810;28;20262;-73
2021/06/07 04:23:08;;;;;;;33.50;19.90;;;;;;;16.17;100.00;96540.44;5043739;28;20225;-71
2021/06/07 04:25:35;;;;;;;34.05;19.55;;;;;;;16.18;100.00;96536.75;5043323;28;20212;-71
2021/06/07 04:28:01;;;;;;;35.65;19.90;;;;;;;16.20;100.00;96548.00;5043733;28;20201;-72
2021/06/07 04:30:31;;;;;;;35.00;19.40;;;;;;;16.20;100.00;96542.66;5040911;28;20201;-72
2021/06/07 04:32:58;;;;;;;34.17;19.77;;;;;;;16.23;100.00;96542.28;5043889;28;20224;-73
2021/06/07 04:35:25;;;;;;;36.42;20.25;;;;;;;16.29;100.00;96546.78;5043879;28;20212;-72
2021/06/07 04:37:53;;;;;;;31.42;18.73;;;;;;;16.24;100.00;96543.09;5043985;28;20734;-73
2021/06/07 04:40:22;;;;;;;32.95;18.50;;;;;;;16.29;100.00;96540.66;5044152;28;20207;-73
2021/06/07 04:42:49;;;;;;;34.42;19.45;;;;;;;16.35;100.00;96543.31;5040654;28;21023;-72
2021/06/07 04:45:16;;;;;;;32.35;18.70;;;;;;;16.34;100.00;96543.53;5039469;28;20201;-71
2021/06/07 04:47:43;;;;;;;37.13;20.25;;;;;;;16.34;100.00;96533.69;5041511;28;20209;-71
2021/06/07 04:50:11;;;;;;;33.08;19.05;;;;;;;16.40;100.00;96540.88;5041846;28;20227;-73
2021/06/07 04:52:56;;;;;;;34.08;19.13;;;;;;;16.43;100.00;96543.13;5040401;28;20217;-72
2021/06/07 04:55:24;;;;;;;34.13;19.73;;;;;;;16.44;100.00;96538.63;5040461;28;20549;-72
2021/06/07 04:57:50;;;;;;;32.67;19.02;;;;;;;16.45;100.00;96543.75;5041896;28;20223;-72
2021/06/07 05:00:20;;;;;;;37.50;19.73;;;;;;;16.51;100.00;96545.59;5040830;28;20212;-73
2021/06/07 05:02:47;;;;;;;34.47;19.58;;;;;;;16.57;100.00;96540.25;5040244;28;20268;-73
2021/06/07 05:05:13;;;;;;;31.08;19.45;;;;;;;16.57;100.00;96540.25;5038581;28;20364;-71
2021/06/07 05:07:39;;;;;;;32.65;19.33;;;;;;;16.61;100.00;96543.31;5040784;28;20212;-72
2021/06/07 05:10:07;;;;;;;34.60;20.55;;;;;;;16.65;100.00;96540.03;5040606;28;20225;-71
2021/06/07 05:12:33;;;;;;;32.65;19.58;;;;;;;16.72;100.00;96545.34;5039996;28;20225;-71
2021/06/07 05:14:59;;;;;;;34.63;20.20;;;;;;;16.76;100.00;96549.22;5040665;28;21431;-73
2021/06/07 05:17:26;;;;;;;37.67;20.45;;;;;;;16.73;100.00;96549.66;5040312;28;20205;-72
2021/06/07 05:19:53;;;;;;;34.60;19.05;;;;;;;16.72;100.00;96550.66;5041054;28;20201;-73
2021/06/07 05:22:19;;;;;;;39.08;21.17;;;;;;;16.71;100.00;96551.69;5039925;28;20205;-72
2021/06/07 05:24:46;;;;;;;33.17;20.20;;;;;;;16.74;100.00;96546.78;5040087;28;20228;-72
2021/06/07 05:27:13;;;;;;;36.55;21.38;;;;;;;16.72;100.00;96553.34;5039387;28;20308;-73
2021/06/07 05:29:39;;;;;;;35.90;20.80;;;;;;;16.64;100.00;96550.91;5036951;28;20220;-72
2021/06/07 05:32:06;;;;;;;39.67;22.27;;;;;;;16.61;100.00;96552.13;5040635;28;20201;-73
2021/06/07 05:34:32;;;;;;;38.00;22.13;;;;;;;16.55;100.00;96558.25;5039268;28;20221;-71
2021/06/07 05:36:59;;;;;;;32.42;20.63;;;;;;;16.58;100.00;96562.34;5039900;28;20205;-71
2021/06/07 05:39:26;;;;;;;34.20;20.10;;;;;;;16.57;100.00;96552.72;5039471;28;20197;-72
2021/06/07 05:41:52;;;;;;;39.03;21.05;;;;;;;16.58;100.00;96563.16;5040245;28;20201;-73
2021/06/07 05:44:18;;;;;;;33.30;19.75;;;;;;;16.65;100.00;96564.00;5039543;28;20225;-72
2021/06/07 05:46:44;;;;;;;33.00;20.15;;;;;;;16.70;100.00;96564.19;5039639;28;20762;-70
2021/06/07 05:49:10;;;;;;;32.63;20.48;;;;;;;16.68;100.00;96558.25;5039854;28;20296;-73
2021/06/07 05:51:36;;;;;;;33.35;19.73;;;;;;;16.74;100.00;96561.94;5039078;28;20511;-71
2021/06/07 05:54:03;;;;;;;20.35;13.02;;;;;;;16.70;100.00;96568.69;5039165;28;20236;-73
2021/06/07 05:56:29;;;;;;;31.65;19.40;;;;;;;16.78;100.00;96563.97;5040072;28;20205;-71
2021/06/07 05:58:57;;;;;;;29.98;17.15;;;;;;;16.81;100.00;96578.72;5039856;28;21106;-72
2021/06/07 06:01:23;;;;;;;22.95;14.73;;;;;;;16.91;100.00;96566.59;5039626;28;20580;-72
2021/06/07 06:03:50;;;;;;;21.77;13.93;;;;;;;17.04;100.00;96574.56;5039772;28;20864;-72
2021/06/07 06:06:16;;;;;;;25.23;15.10;;;;;;;17.14;100.00;96575.78;5037717;28;20212;-71
2021/06/07 06:08:42;;;;;;;27.45;17.70;;;;;;;17.14;100.00;96570.47;5039237;28;20282;-72
2021/06/07 06:11:10;;;;;;;22.50;14.35;;;;;;;17.23;100.00;96568.38;5039393;28;20220;-73
2021/06/07 06:13:37;;;;;;;26.05;15.70;;;;;;;17.29;100.00;96573.69;5039528;28;20583;-72
2021/06/07 06:16:04;;;;;;;25.42;15.20;;;;;;;17.36;100.00;96574.50;5039180;28;20201;-72
2021/06/07 06:18:30;;;;;;;29.10;18.23;;;;;;;17.41;100.00;96571.22;5039410;28;20212;-72
2021/06/07 06:20:56;;;;;;;24.25;14.38;;;;;;;17.47;100.00;96568.50;5038659;28;20574;-72
2021/06/07 06:23:22;;;;;;;22.65;14.68;;;;;;;17.61;100.00;96563.97;5038649;28;20274;-72
2021/06/07 06:25:48;;;;;;;27.08;15.73;;;;;;;17.73;100.00;96568.38;5037141;28;20205;-70
2021/06/07 06:28:16;;;;;;;31.35;20.10;;;;;;;17.79;100.00;96572.88;5036847;28;20201;-72
2021/06/07 06:30:42;;;;;;;23.45;15.13;;;;;;;17.90;100.00;96567.69;5035408;28;20201;-70
2021/06/07 06:33:08;;;;;;;33.63;20.80;;;;;;;17.74;100.00;96573.53;5039185;28;20687;-73
2021/06/07 06:35:34;;;;;;;37.45;21.13;;;;;;;17.82;100.00;96569.81;5037131;28;20270;-71
2021/06/07 06:38:00;;;;;;;28.33;17.55;;;;;;;17.88;100.00;96572.44;5038255;28;20697;-70
2021/06/07 06:40:28;;;;;;;30.08;19.48;;;;;;;17.82;100.00;96580.47;5038833;28;20205;-72
2021/06/07 06:42:56;;;;;;;30.17;18.88;;;;;;;17.81;100.00;96576.97;5038550;28;20221;-72
2021/06/07 06:45:24;;;;;;;38.13;22.08;;;;;;;17.82;100.00;96580.47;5036757;28;20263;-72
2021/06/07 06:47:55;;;;;;;36.67;21.95;;;;;;;17.78;100.00;96588.06;5038022;28;20211;-70
2021/06/07 06:50:23;;;;;;;39.25;22.17;;;;;;;17.72;100.00;96585.44;5038360;28;20217;-73
2021/06/07 06:52:49;;;;;;;39.35;22.52;;;;;;;17.70;100.00;96584.00;5038165;28;20217;-71
2021/06/07 06:55:15;;;;;;;38.88;20.95;;;;;;;17.65;100.00;96584.63;5038597;28;20212;-73
2021/06/07 06:57:41;;;;;;;35.75;20.13;;;;;;;17.60;100.00;96584.44;5037911;28;20201;-72
2021/06/07 07:00:09;;;;;;;34.92;19.67;;;;;;;17.71;100.00;96583.78;5038447;28;20204;-71
2021/06/07 07:02:36;;;;;;;36.53;19.80;;;;;;;17.79;100.00;96583.53;5039007;28;20204;-72
2021/06/07 07:05:03;;;;;;;34.38;18.27;;;;;;;18.02;100.00;96586.50;5036316;28;20209;-71
2021/06/07 07:07:29;;;;;;;31.55;17.83;;;;;;;18.20;100.00;96586.63;5037554;28;20228;-71
2021/06/07 07:09:55;;;;;;;28.85;16.48;;;;;;;18.42;100.00;96586.88;5036933;28;20221;-73
2021/06/07 07:12:24;;;;;;;31.30;17.33;;;;;;;18.64;100.00;96588.13;5036582;28;20201;-71
2021/06/07 07:14:50;;;;;;;25.58;13.65;;;;;;;18.66;100.00;96588.72;5037401;28;20205;-71
2021/06/07 07:17:16;;;;;;;23.17;14.10;;;;;;;18.79;100.00;96591.28;5037065;28;20216;-71
2021/06/07 07:19:46;;;;;;;18.40;11.95;;;;;;;18.91;100.00;96599.41;5038176;28;20716;-74
2021/06/07 07:22:12;;;;;;;19.27;11.05;;;;;;;18.90;100.00;96601.25;5037930;28;20209;-73
2021/06/07 07:24:39;;;;;;;14.95;8.88;;;;;;;18.65;100.00;96597.78;5037133;28;20232;-74
2021/06/07 07:27:06;;;;;;;16.85;9.77;;;;;;;18.78;100.00;96603.00;5037719;28;20208;-74
2021/06/07 07:29:32;;;;;;;19.08;10.60;;;;;;;18.79;100.00;96601.13;5034865;28;20309;-73
2021/06/07 07:31:58;;;;;;;26.17;14.65;;;;;;;18.79;100.00;96599.28;5038400;28;20197;-74
2021/06/07 07:34:24;;;;;;;24.83;14.35;;;;;;;18.83;100.00;96599.69;5037827;28;20769;-74
2021/06/07 07:36:52;;;;;;;26.42;14.90;;;;;;;18.95;100.00;96601.41;5037009;28;20197;-72
2021/06/07 07:39:18;;;;;;;25.60;14.80;;;;;;;18.88;100.00;96606.00;5037590;28;20209;-73
2021/06/07 07:41:44;;;;;;;25.77;14.20;;;;;;;18.91;100.00;96599.41;5036110;28;20266;-72
2021/06/07 07:44:09;;;;;;;26.42;14.68;;;;;;;18.79;100.00;96607.31;5036664;28;20699;-73
2021/06/07 07:46:35;;;;;;;24.70;14.70;;;;;;;18.79;100.00;96601.13;5036534;28;20201;-74
2021/06/07 07:49:01;;;;;;;24.17;13.70;;;;;;;18.79;100.00;96606.47;5037986;28;20232;-73
2021/06/07 07:51:27;;;;;;;21.23;12.85;;;;;;;18.75;100.00;96602.59;5037629;28;20201;-73
2021/06/07 07:53:55;;;;;;;19.70;12.07;;;;;;;18.80;100.00;96608.94;5037568;28;20733;-73
2021/06/07 07:56:21;;;;;;;20.20;10.77;;;;;;;18.80;100.00;96606.28;5037598;28;20737;-71
2021/06/07 07:58:47;;;;;;;21.95;11.80;;;;;;;18.80;100.00;96598.28;5039297;28;20201;-71
2021/06/07 08:01:13;;;;;;;21.63;12.23;;;;;;;18.87;100.00;96598.22;5037264;28;20671;-71
2021/06/07 08:03:39;;;;;;;21.33;11.70;;;;;;;18.92;100.00;96601.84;5037896;28;21065;-72
2021/06/07 08:06:05;;;;;;;19.27;11.70;;;;;;;18.92;100.00;96609.84;5036731;28;20197;-72
2021/06/07 08:08:31;;;;;;;21.35;12.30;;;;;;;19.08;100.00;96612.81;5037364;28;20721;-73
2021/06/07 08:10:58;;;;;;;20.27;11.20;;;;;;;19.12;100.00;96599.84;5036545;28;20201;-73
2021/06/07 08:13:25;;;;;;;25.27;12.38;;;;;;;19.11;100.00;96600.88;5037596;28;20721;-71
2021/06/07 08:15:51;;;;;;;22.55;11.80;;;;;;;19.19;100.00;96600.59;5035442;28;20279;-71
2021/06/07 08:18:17;;;;;;;21.15;12.32;;;;;;;19.23;100.00;96607.13;5040504;28;20208;-72
2021/06/07 08:20:44;;;;;;;19.80;11.98;;;;;;;19.32;100.00;96600.44;5041129;28;20208;-73
2021/06/07 08:23:10;;;;;;;20.40;11.15;;;;;;;19.35;100.00;96600.03;5041502;28;20229;-72
2021/06/07 08:25:36;;;;;;;17.88;10.18;;;;;;;19.31;100.00;96598.81;5039434;28;20205;-73
2021/06/07 08:28:05;;;;;;;17.95;10.90;;;;;;;19.37;100.00;96601.41;5040977;28;20198;-71
2021/06/07 08:30:32;;;;;;;17.67;10.85;;;;;;;19.29;100.00;96603.56;5041079;28;20225;-73
2021/06/07 08:32:59;;;;;;;20.00;11.73;;;;;;;19.28;100.00;96602.72;5041373;28;20221;-73
2021/06/07 08:35:25;;;;;;;22.90;12.45;;;;;;;19.13;100.00;96604.13;5040175;28;20258;-72
2021/06/07 08:37:51;;;;;;;26.00;13.00;;;;;;;19.17;100.00;96606.16;5039999;28;20205;-72
2021/06/07 08:40:18;;;;;;;21.58;12.35;;;;;;;19.06;100.00;96598.06;5040372;28;20816;-73
2021/06/07 08:42:45;;;;;;;21.45;12.13;;;;;;;19.04;100.00;96600.06;5040263;28;20227;-72
2021/06/07 08:45:15;;;;;;;25.25;13.43;;;;;;;19.01;100.00;96600.53;5039861;28;20212;-72
2021/06/07 08:47:42;;;;;;;23.75;12.82;;;;;;;19.05;100.00;96601.72;5040123;28;20201;-73
2021/06/07 08:50:10;;;;;;;23.10;12.90;;;;;;;19.14;100.00;96605.78;5039818;28;20271;-73
2021/06/07 08:52:37;;;;;;;26.25;13.07;;;;;;;19.29;100.00;96608.91;5040426;28;20461;-72
2021/06/07 08:55:05;;;;;;;22.58;12.13;;;;;;;19.37;100.00;96605.94;5039435;28;20612;-72
2021/06/07 08:57:38;;;;;;;22.45;12.40;;;;;;;19.54;100.00;96604.31;5038668;28;20216;-72
2021/06/07 09:00:07;;;;;;;22.48;12.75;;;;;;;19.46;100.00;96610.75;5040311;28;20197;-73
2021/06/07 09:02:36;;;;;;;22.48;11.70;;;;;;;19.49;100.00;96609.50;5039528;28;20201;-74
2021/06/07 09:05:04;;;;;;;22.77;12.88;;;;;;;19.52;100.00;96612.56;5039368;28;20205;-73
2021/06/07 09:07:30;;;;;;;19.35;11.45;;;;;;;19.57;100.00;96601.22;5039785;28;20213;-72
2021/06/07 09:10:08;;;;;;;19.40;10.90;;;;;;;19.50;100.00;96609.31;5040484;28;20282;-71
2021/06/07 09:12:34;;;;;;;19.25;10.48;;;;;;;19.60;100.00;96614.91;5040371;28;20611;-72
2021/06/07 09:15:00;;;;;;;19.13;10.25;;;;;;;19.66;100.00;96612.16;5038371;28;20213;-70
2021/06/07 09:17:27;;;;;;;16.52;10.02;;;;;;;19.77;100.00;96603.41;5040551;28;20244;-71
2021/06/07 09:20:14;;;;;;;17.48;10.70;;;;;;;19.75;100.00;96605.47;5040254;28;20197;-72
2021/06/07 09:22:48;;;;;;;17.00;9.38;;;;;;;19.93;100.00;96605.47;5038964;28;21070;-71
2021/06/07 09:25:16;;;;;;;15.65;9.68;;;;;;;20.08;100.00;96605.09;5039945;28;20201;-72
2021/06/07 09:28:01;;;;;;;20.25;10.70;;;;;;;20.17;100.00;96604.53;5040621;28;20197;-73
2021/06/07 09:30:29;;;;;;;17.83;10.73;;;;;;;20.20;100.00;96598.75;5040712;28;20232;-72
2021/06/07 09:33:17;;;;;;;19.38;9.88;;;;;;;20.43;100.00;96596.13;5039945;28;20568;-71
2021/06/07 09:35:49;;;;;;;17.98;9.48;;;;;;;20.43;100.00;96598.81;5034373;28;20209;-71
2021/06/07 09:38:15;;;;;;;15.30;9.90;;;;;;;20.50;100.00;96599.53;5039449;28;20219;-72
2021/06/07 09:40:41;;;;;;;15.68;9.52;;;;;;;20.44;100.00;96600.44;5039676;28;20193;-72
2021/06/07 09:43:07;;;;;;;15.07;9.77;;;;;;;20.72;100.00;96605.97;5040041;28;20228;-73
2021/06/07 09:45:44;;;;;;;21.27;10.52;;;;;;;20.70;100.00;96606.22;5038540;28;20266;-72
2021/06/07 09:48:12;;;;;;;16.52;10.10;;;;;;;20.66;100.00;96610.41;5039877;28;20212;-72
2021/06/07 09:50:54;;;;;;;21.02;10.50;;;;;;;20.50;100.00;96612.94;5039448;28;20358;-73
2021/06/07 09:53:43;;;;;;;17.75;10.23;;;;;;;20.63;100.00;96610.84;5039585;28;20776;-72
2021/06/07 09:56:09;;;;;;;17.38;9.65;;;;;;;20.74;100.00;96607.41;5038401;28;20197;-72
2021/06/07 09:58:36;;;;;;;15.77;10.45;;;;;;;20.66;100.00;96610.41;5039657;28;20205;-72
2021/06/07 10:01:09;;;;;;;16.63;8.68;;;;;;;21.15;100.00;96612.69;5038678;28;20204;-71
2021/06/07 10:03:41;;;;;;;12.63;7.63;;;;;;;21.42;100.00;96612.81;5039556;28;20693;-72
2021/06/07 10:06:22;;;;;;;13.15;8.00;;;;;;;21.35;100.00;96610.47;5038374;28;20252;-72
2021/06/07 10:08:50;;;;;;;13.48;7.70;;;;;;;21.10;100.00;96610.69;5039619;28;20235;-71
2021/06/07 10:11:20;;;;;;;11.38;7.50;;;;;;;21.16;100.00;96615.13;5039455;28;20253;-72
2021/06/07 10:13:47;;;;;;;10.80;6.90;;;;;;;21.28;100.00;96615.94;5039716;28;20599;-72
2021/06/07 10:16:14;;;;;;;15.20;7.72;;;;;;;21.37;100.00;96606.50;5036059;28;20209;-71
2021/06/07 10:18:41;;;;;;;13.95;8.63;;;;;;;21.42;100.00;96611.97;5039694;28;20197;-72
2021/06/07 10:21:09;;;;;;;13.85;8.80;;;;;;;21.41;100.00;96605.00;5040500;28;20209;-72
2021/06/07 10:23:38;;;;;;;14.40;8.32;;;;;;;21.59;100.00;96603.00;5039258;28;20324;-72
2021/06/07 10:26:05;;;;;;;10.48;7.13;;;;;;;21.88;100.00;96606.56;5038277;28;20201;-72
2021/06/07 10:28:34;;;;;;;12.70;8.23;;;;;;;22.32;100.00;96599.41;5039482;28;20258;-71
2021/06/07 10:31:10;;;;;;;15.48;8.00;;;;;;;22.36;100.00;96600.53;5039765;28;20262;-71
2021/06/07 10:33:37;;;;;;;12.23;7.90;;;;;;;21.94;100.00;96595.69;5038049;28;20282;-73
2021/06/07 10:36:30;;;;;;;15.23;8.35;;;;;;;21.68;100.00;96600.78;5038239;28;20201;-72
2021/06/07 10:39:35;;;;;;;12.30;8.38;;;;;;;21.44;100.00;96605.31;5037823;28;20198;-71
2021/06/07 10:42:24;;;;;;;12.60;7.22;;;;;;;21.10;100.00;96597.28;5018812;28;20208;-71
2021/06/07 10:44:53;;;;;;;12.68;6.75;;;;;;;21.09;100.00;96601.03;5038779;28;20218;-72
2021/06/07 10:47:22;;;;;;;11.45;7.28;;;;;;;21.17;100.00;96603.38;5037238;28;20213;-72
2021/06/07 10:49:50;;;;;;;13.98;8.18;;;;;;;21.27;100.00;96598.25;5039044;28;20253;-73
2021/06/07 10:52:18;;;;;;;9.95;6.78;;;;;;;21.31;100.00;96604.78;5038206;28;20240;-72
2021/06/07 10:54:46;;;;;;;9.18;5.47;;;;;;;21.27;100.00;96600.09;5037297;28;20225;-71
2021/06/07 10:57:37;;;;;;;9.68;5.60;;;;;;;21.23;100.00;96605.13;5037667;28;20213;-71
2021/06/07 11:00:20;;;;;;;9.98;7.00;;;;;;;21.21;100.00;96599.16;5037628;28;20201;-71
2021/06/07 11:02:47;;;;;;;11.35;7.28;;;;;;;21.51;100.00;96607.91;5038243;28;20224;-72
2021/06/07 11:05:15;;;;;;;9.50;6.53;;;;;;;21.32;100.00;96602.88;5038726;28;20296;-73
2021/06/07 11:07:43;;;;;;;12.10;7.18;;;;;;;21.33;100.00;96601.84;5039688;28;20201;-72
2021/06/07 11:10:22;;;;;;;9.00;5.80;;;;;;;21.10;100.00;96602.66;5037566;28;20221;-73
2021/06/07 11:12:50;;;;;;;7.75;5.60;;;;;;;21.21;99.38;96603.72;5039663;28;20220;-71
2021/06/07 11:15:20;;;;;;;8.55;5.72;;;;;;;21.12;100.00;96603.25;5036876;28;20220;-71